createdAt,value
2017-11-10T00:03:40.423Z,94.40
2017-11-10T00:06:45.564Z,94.30
2017-11-10T00:09:50.502Z,94.50
2017-11-10T00:12:56.914Z,94.30
2017-11-10T00:16:03.502Z,94.70
2017-11-10T00:19:05.745Z,94.60
2017-11-10T00:22:09.011Z,94.40
2017-11-10T00:25:14.052Z,94.00
2017-11-10T00:28:19.167Z,94.00
2017-11-10T00:31:22.429Z,93.70
2017-11-10T00:34:28.519Z,94.20
2017-11-10T00:37:32.745Z,94.10
2017-11-10T00:40:38.628Z,94.00
2017-11-10T00:43:44.093Z,93.90
2017-11-10T00:46:47.672Z,93.80
2017-11-10T00:49:50.907Z,94.00
2017-11-10T00:52:55.285Z,94.00
2017-11-10T00:55:58.873Z,94.00
2017-11-10T00:59:02.871Z,93.90
2017-11-10T01:02:07.339Z,94.10
2017-11-10T01:05:11.369Z,93.90
2017-11-10T01:08:14.859Z,94.00
2017-11-10T01:11:16.312Z,94.00
2017-11-10T01:14:19.485Z,94.00
2017-11-10T01:17:20.916Z,94.00
2017-11-10T01:20:22.317Z,93.90
2017-11-10T01:23:23.700Z,94.00
2017-11-10T01:26:27.072Z,94.30
2017-11-10T01:29:29.181Z,94.20
2017-11-10T01:32:30.599Z,94.20
2017-11-10T01:35:32.772Z,94.40
2017-11-10T01:38:34.990Z,94.70
2017-11-10T01:41:36.372Z,94.60
2017-11-10T01:44:37.932Z,94.40
2017-11-10T01:47:39.317Z,94.30
2017-11-10T01:50:40.770Z,94.40
2017-11-10T01:53:42.173Z,94.30
2017-11-10T01:56:43.663Z,94.20
2017-11-10T01:59:45.812Z,94.30
2017-11-10T02:02:48.068Z,94.30
2017-11-10T02:05:49.512Z,94.10
2017-11-10T02:08:50.949Z,94.20
2017-11-10T02:11:52.444Z,94.20
2017-11-10T02:14:54.604Z,94.10
2017-11-10T02:17:56.017Z,94.10
2017-11-10T02:20:57.565Z,94.00
2017-11-10T02:23:58.988Z,94.50
2017-11-10T02:27:01.125Z,94.50
2017-11-10T02:30:02.583Z,94.40
2017-11-10T02:33:04.033Z,94.60
2017-11-10T02:36:06.268Z,94.70
2017-11-10T02:39:07.688Z,94.70
2017-11-10T02:42:09.094Z,94.80
2017-11-10T02:45:12.462Z,94.70
2017-11-10T02:48:13.908Z,94.50
2017-11-10T02:51:15.355Z,94.90
2017-11-10T02:54:16.798Z,94.70
2017-11-10T02:57:18.254Z,94.90
2017-11-10T03:00:19.639Z,94.80
2017-11-10T03:03:21.071Z,94.70
2017-11-10T03:06:22.575Z,94.80
2017-11-10T03:09:23.989Z,94.60
2017-11-10T03:12:25.464Z,95.30
2017-11-10T03:15:27.631Z,94.90
2017-11-10T03:18:29.199Z,95.00
2017-11-10T03:21:30.644Z,95.00
2017-11-10T03:24:32.099Z,94.90
2017-11-10T03:27:33.516Z,95.10
2017-11-10T03:30:34.989Z,95.00
2017-11-10T03:33:36.416Z,95.20
2017-11-10T03:36:37.863Z,94.70
2017-11-10T03:39:39.247Z,94.80
2017-11-10T03:42:41.380Z,95.00
2017-11-10T03:45:42.806Z,94.90
2017-11-10T03:51:53.042Z,94.90
2017-11-10T03:54:54.487Z,94.80
2017-11-10T03:57:56.020Z,94.80
2017-11-10T04:00:57.463Z,94.80
2017-11-10T04:03:58.896Z,94.70
2017-11-10T04:07:01.117Z,94.90
2017-11-10T04:10:02.552Z,94.90
2017-11-10T04:13:03.997Z,94.90
2017-11-10T04:16:05.428Z,95.10
2017-11-10T04:19:07.676Z,94.90
2017-11-10T04:22:09.163Z,94.90
2017-11-10T04:25:10.553Z,94.90
2017-11-10T04:28:11.989Z,95.20
2017-11-10T04:31:13.385Z,95.10
2017-11-10T04:34:14.800Z,94.90
2017-11-10T04:37:16.207Z,95.50
2017-11-10T04:40:18.363Z,95.30
2017-11-10T04:43:19.827Z,95.30
2017-11-10T04:46:21.223Z,95.40
2017-11-10T04:49:23.391Z,95.40
2017-11-10T04:52:24.793Z,95.40
2017-11-10T04:55:26.977Z,95.50
2017-11-10T04:58:29.203Z,95.60
2017-11-10T05:01:31.422Z,95.80
2017-11-10T05:04:32.828Z,95.80
2017-11-10T05:07:34.372Z,95.80
2017-11-10T05:10:35.839Z,95.70
2017-11-10T05:13:37.252Z,95.70
2017-11-10T05:16:38.694Z,95.80
2017-11-10T05:19:40.079Z,95.70
2017-11-10T05:22:41.575Z,95.60
2017-11-10T05:25:43.712Z,95.80
2017-11-10T05:28:45.172Z,95.80
2017-11-10T05:31:46.578Z,95.90
2017-11-10T05:34:48.000Z,96.00
2017-11-10T05:37:50.196Z,95.80
2017-11-10T05:40:51.607Z,95.60
2017-11-10T05:43:53.051Z,95.70
2017-11-10T05:46:54.469Z,95.80
2017-11-10T05:49:55.933Z,95.90
2017-11-10T05:52:57.384Z,96.00
2017-11-10T05:55:59.571Z,95.90
2017-11-10T05:59:01.041Z,95.80
2017-11-10T06:02:09.525Z,95.90
2017-11-10T06:05:10.944Z,95.90
2017-11-10T06:08:12.340Z,95.90
2017-11-10T06:11:13.804Z,95.70
2017-11-10T06:14:15.204Z,95.70
2017-11-10T06:17:16.704Z,95.70
2017-11-10T06:20:18.148Z,95.50
2017-11-10T06:23:19.617Z,95.90
2017-11-10T06:26:21.088Z,95.90
2017-11-10T06:29:23.265Z,95.80
2017-11-10T06:32:25.427Z,95.90
2017-11-10T06:35:27.630Z,95.90
2017-11-10T06:38:29.031Z,95.90
2017-11-10T06:41:30.443Z,95.80
2017-11-10T06:44:31.867Z,95.90
2017-11-10T06:47:33.253Z,95.80
2017-11-10T06:50:34.711Z,96.00
2017-11-10T06:53:36.172Z,96.00
2017-11-10T06:56:37.573Z,95.80
2017-11-10T06:59:39.072Z,95.90
2017-11-10T07:02:41.227Z,95.90
2017-11-10T07:05:42.605Z,95.90
2017-11-10T07:08:44.037Z,95.90
2017-11-10T07:11:45.420Z,95.80
2017-11-10T07:14:46.823Z,95.80
2017-11-10T07:17:48.170Z,95.70
2017-11-10T07:20:49.619Z,95.80
2017-11-10T07:23:51.072Z,95.70
2017-11-10T07:26:52.516Z,95.70
2017-11-10T07:29:53.900Z,95.60
2017-11-10T07:32:55.306Z,95.60
2017-11-10T07:35:57.444Z,95.70
2017-11-10T07:38:58.860Z,95.70
2017-11-10T07:42:00.299Z,95.60
2017-11-10T07:45:01.719Z,95.50
2017-11-10T07:48:03.921Z,95.60
2017-11-10T07:51:05.288Z,95.60
2017-11-10T07:54:06.732Z,95.30
2017-11-10T07:57:08.125Z,95.50
2017-11-10T08:00:09.524Z,95.50
2017-11-10T08:03:10.888Z,95.60
2017-11-10T08:06:12.260Z,95.60
2017-11-10T08:09:13.633Z,95.70
2017-11-10T08:12:15.043Z,95.70
2017-11-10T08:15:16.486Z,95.60
2017-11-10T08:18:17.828Z,95.80
2017-11-10T08:21:19.262Z,95.80
2017-11-10T08:24:21.385Z,95.60
2017-11-10T08:27:23.510Z,95.90
2017-11-10T08:30:24.939Z,95.90
2017-11-10T08:33:27.088Z,95.80
2017-11-10T08:36:28.537Z,95.70
2017-11-10T08:39:29.955Z,95.60
2017-11-10T08:42:31.378Z,95.90
2017-11-10T08:45:33.510Z,96.00
2017-11-10T08:48:35.021Z,95.90
2017-11-10T08:51:36.714Z,95.90
2017-11-10T08:54:38.116Z,96.00
2017-11-10T08:57:39.519Z,96.30
2017-11-10T09:00:40.889Z,96.40
2017-11-10T09:03:42.274Z,96.50
2017-11-10T09:06:43.628Z,96.40
2017-11-10T09:09:45.013Z,96.50
2017-11-10T09:12:46.354Z,96.70
2017-11-10T09:15:49.108Z,96.60
2017-11-10T09:18:50.443Z,96.60
2017-11-10T09:21:52.583Z,96.70
2017-11-10T09:24:53.905Z,96.70
2017-11-10T09:28:05.219Z,96.60
2017-11-10T09:31:18.492Z,96.50
2017-11-10T09:38:06.900Z,96.50
2017-11-10T09:41:14.294Z,96.70
2017-11-10T09:44:21.775Z,96.50
2017-11-10T09:47:29.186Z,96.50
2017-11-10T09:50:36.783Z,96.70
2017-11-10T09:53:51.990Z,96.90
2017-11-10T09:56:57.311Z,96.50
2017-11-10T10:00:13.565Z,96.50
2017-11-10T10:03:20.923Z,96.40
2017-11-10T10:06:23.131Z,96.40
2017-11-10T10:09:30.408Z,96.40
2017-11-10T10:12:35.640Z,96.00
2017-11-10T10:15:45.722Z,96.00
2017-11-10T10:22:29.598Z,96.10
2017-11-10T10:25:30.996Z,96.10
2017-11-10T10:28:32.382Z,95.90
2017-11-10T10:31:33.702Z,96.00
2017-11-10T10:34:42.762Z,95.80
2017-11-10T10:37:44.257Z,95.80
2017-11-10T10:40:45.671Z,96.10
2017-11-10T10:43:47.057Z,95.90
2017-11-10T10:46:48.408Z,95.90
2017-11-10T10:49:49.815Z,95.70
2017-11-10T10:52:51.148Z,95.50
2017-11-10T10:55:53.238Z,95.90
2017-11-10T10:58:54.542Z,95.80
2017-11-10T11:01:55.929Z,95.50
2017-11-10T11:04:57.273Z,95.40
2017-11-10T11:07:59.322Z,95.20
2017-11-10T11:11:07.591Z,95.30
2017-11-10T11:14:08.920Z,95.30
2017-11-10T11:17:10.275Z,95.10
2017-11-10T11:20:11.622Z,95.00
2017-11-10T11:23:13.075Z,95.20
2017-11-10T11:26:14.412Z,95.30
2017-11-10T11:29:15.763Z,95.30
2017-11-10T11:32:17.110Z,95.40
2017-11-10T11:35:18.452Z,95.70
2017-11-10T11:38:20.527Z,96.10
2017-11-10T11:41:21.810Z,96.10
2017-11-10T11:44:23.153Z,96.10
2017-11-10T11:47:24.514Z,96.50
2017-11-10T11:50:26.691Z,96.60
2017-11-10T11:53:28.064Z,96.60
2017-11-10T11:56:30.525Z,96.90
2017-11-10T11:59:32.851Z,96.80
2017-11-10T12:02:34.271Z,96.80
2017-11-10T12:05:35.996Z,96.70
2017-11-10T12:08:38.505Z,96.90
2017-11-10T12:11:40.018Z,96.80
2017-11-10T12:14:41.900Z,96.80
2017-11-10T12:17:44.696Z,97.10
2017-11-10T12:20:46.905Z,96.90
2017-11-10T12:23:48.357Z,97.00
2017-11-10T12:26:50.306Z,97.30
2017-11-10T12:29:52.013Z,97.20
2017-11-10T12:32:53.526Z,97.30
2017-11-10T12:35:55.875Z,97.20
2017-11-10T12:38:58.302Z,97.30
2017-11-10T12:41:59.714Z,97.30
2017-11-10T12:45:02.032Z,97.50
2017-11-10T12:48:04.184Z,97.50
2017-11-10T12:51:07.903Z,97.50
2017-11-10T12:54:11.503Z,97.40
2017-11-10T12:57:14.294Z,97.20
2017-11-10T13:00:17.747Z,97.20
2017-11-10T13:03:19.923Z,96.90
2017-11-10T13:06:22.131Z,96.60
2017-11-10T13:09:23.491Z,96.60
2017-11-10T13:12:24.821Z,96.70
2017-11-10T13:15:26.215Z,96.70
2017-11-10T13:18:27.558Z,96.90
2017-11-10T13:21:28.920Z,96.60
2017-11-10T13:24:30.282Z,96.50
2017-11-10T13:27:31.606Z,96.40
2017-11-10T13:30:32.911Z,96.20
2017-11-10T13:33:34.257Z,96.30
2017-11-10T13:36:35.565Z,96.20
2017-11-10T13:39:36.865Z,95.70
2017-11-10T13:42:38.240Z,95.80
2017-11-10T13:45:39.523Z,95.50
2017-11-10T13:48:40.854Z,95.70
2017-11-10T13:51:42.190Z,95.40
2017-11-10T13:54:43.531Z,95.50
2017-11-10T13:57:44.829Z,95.10
2017-11-10T14:00:46.188Z,95.00
2017-11-10T14:03:48.279Z,95.10
2017-11-10T14:06:49.592Z,95.10
2017-11-10T14:09:50.945Z,95.00
2017-11-10T14:12:52.240Z,95.10
2017-11-10T14:15:53.615Z,95.20
2017-11-10T14:18:54.951Z,95.40
2017-11-10T14:21:56.316Z,95.80
2017-11-10T14:24:57.629Z,96.00
2017-11-10T14:27:58.949Z,96.30
2017-11-10T14:31:00.373Z,95.80
2017-11-10T14:34:01.677Z,95.80
2017-11-10T14:37:03.102Z,95.80
2017-11-10T14:40:05.178Z,95.50
2017-11-10T14:43:14.398Z,95.50
2017-11-10T14:46:15.808Z,95.50
2017-11-10T14:49:17.151Z,95.70
2017-11-10T14:52:18.534Z,95.50
2017-11-10T14:55:19.839Z,95.60
2017-11-10T14:58:21.192Z,95.50
2017-11-10T15:01:22.532Z,95.10
2017-11-10T15:04:23.910Z,95.00
2017-11-10T15:07:25.233Z,94.90
2017-11-10T15:10:26.569Z,94.60
2017-11-10T15:13:28.681Z,95.00
2017-11-10T15:16:30.031Z,95.00
2017-11-10T15:19:31.555Z,94.60
2017-11-10T15:22:33.008Z,95.00
2017-11-10T15:25:34.305Z,95.30
2017-11-10T15:28:35.772Z,95.30
2017-11-10T15:31:37.178Z,95.30
2017-11-10T15:34:38.570Z,94.90
2017-11-10T15:37:39.982Z,94.90
2017-11-10T15:40:41.277Z,95.20
2017-11-10T15:43:42.615Z,94.50
2017-11-10T15:46:43.947Z,94.80
2017-11-10T15:49:45.410Z,94.50
2017-11-10T15:52:53.819Z,94.40
2017-11-10T15:55:55.161Z,94.20
2017-11-10T15:58:56.852Z,94.20
2017-11-10T16:01:58.963Z,94.50
2017-11-10T16:05:00.322Z,94.50
2017-11-10T16:08:02.282Z,94.10
2017-11-10T16:11:06.098Z,94.10
2017-11-10T16:14:07.732Z,93.50
2017-11-10T16:17:10.079Z,93.90
2017-11-10T16:20:11.709Z,93.40
2017-11-10T16:23:13.316Z,93.40
2017-11-10T16:26:14.783Z,93.40
2017-11-10T16:29:16.172Z,93.40
2017-11-10T16:32:17.831Z,93.10
2017-11-10T16:35:20.900Z,93.20
2017-11-10T16:38:23.765Z,93.20
2017-11-10T16:41:25.575Z,93.30
2017-11-10T16:44:26.970Z,93.00
2017-11-10T16:47:29.654Z,93.10
2017-11-10T16:50:32.113Z,93.10
2017-11-10T16:53:34.999Z,93.10
2017-11-10T16:56:36.441Z,93.00
2017-11-10T16:59:39.169Z,92.80
2017-11-10T17:02:42.018Z,93.00
2017-11-10T17:05:43.615Z,92.50
2017-11-10T17:08:45.247Z,92.40
2017-11-10T17:11:47.342Z,92.60
2017-11-10T17:14:50.336Z,92.60
2017-11-10T17:17:51.706Z,92.20
2017-11-10T17:20:54.366Z,92.20
2017-11-10T17:23:56.963Z,92.40
2017-11-10T17:26:58.311Z,91.80
2017-11-10T17:30:14.692Z,91.90
2017-11-10T17:33:17.200Z,91.70
2017-11-10T17:36:18.629Z,92.10
2017-11-10T17:39:21.348Z,93.60
2017-11-10T17:42:23.630Z,91.60
2017-11-10T17:45:25.102Z,91.60
2017-11-10T17:48:26.479Z,91.40
2017-11-10T17:51:28.293Z,91.90
2017-11-10T17:54:31.610Z,92.10
2017-11-10T17:57:33.429Z,91.70
2017-11-10T18:00:34.852Z,91.70
2017-11-10T18:03:38.097Z,91.70
2017-11-10T18:06:39.561Z,91.70
2017-11-10T18:09:42.263Z,91.60
2017-11-10T18:12:44.646Z,91.70
2017-11-10T18:15:46.899Z,91.70
2017-11-10T18:18:50.267Z,91.30
2017-11-10T18:21:52.078Z,91.40
2017-11-10T18:24:54.381Z,91.30
2017-11-10T18:27:57.564Z,91.10
2017-11-10T18:31:00.232Z,90.50
2017-11-10T18:34:06.205Z,90.20
2017-11-10T18:37:08.183Z,90.10
2017-11-10T18:40:09.644Z,90.10
2017-11-10T18:43:11.485Z,90.50
2017-11-10T18:46:13.694Z,89.60
2017-11-10T18:49:21.917Z,89.50
2017-11-10T18:52:23.812Z,89.70
2017-11-10T18:55:31.651Z,88.90
2017-11-10T18:58:33.068Z,88.40
2017-11-10T19:01:34.489Z,89.10
2017-11-10T19:04:36.200Z,88.80
2017-11-10T19:07:40.876Z,88.70
2017-11-10T19:10:42.448Z,88.70
2017-11-10T19:13:45.466Z,88.20
2017-11-10T19:16:48.321Z,88.10
2017-11-10T19:19:51.233Z,86.80
2017-11-10T19:22:52.718Z,87.60
2017-11-10T19:25:54.697Z,87.50
2017-11-10T19:28:57.340Z,88.00
2017-11-10T19:31:59.993Z,88.70
2017-11-10T19:35:01.677Z,87.40
2017-11-10T19:38:03.604Z,88.10
2017-11-10T19:41:05.267Z,88.00
2017-11-10T19:44:07.282Z,88.60
2017-11-10T19:50:53.907Z,87.60
2017-11-10T19:53:55.372Z,87.70
2017-11-10T19:56:56.714Z,88.30
2017-11-10T19:59:58.105Z,87.50
2017-11-10T20:02:59.556Z,87.70
2017-11-10T20:06:01.681Z,88.40
2017-11-10T20:09:03.261Z,88.40
2017-11-10T20:12:05.368Z,88.10
2017-11-10T20:15:06.747Z,88.00
2017-11-10T20:18:08.188Z,87.80
2017-11-10T20:21:09.825Z,87.40
2017-11-10T20:24:12.049Z,88.10
2017-11-10T20:27:13.400Z,87.30
2017-11-10T20:30:15.527Z,88.40
2017-11-10T20:33:17.685Z,90.20
2017-11-10T20:36:19.152Z,90.00
2017-11-10T20:39:20.637Z,90.00
2017-11-10T20:42:22.078Z,89.50
2017-11-10T20:45:23.504Z,89.00
2017-11-10T20:48:24.967Z,88.50
2017-11-10T20:51:26.337Z,92.00
2017-11-10T20:54:27.689Z,88.60
2017-11-10T20:57:29.221Z,90.30
2017-11-10T21:00:30.681Z,88.70
2017-11-10T21:03:32.114Z,90.20
2017-11-10T21:06:34.219Z,89.10
2017-11-10T21:09:35.603Z,89.20
2017-11-10T21:12:37.133Z,89.20
2017-11-10T21:15:38.517Z,89.50
2017-11-10T21:18:40.878Z,88.60
2017-11-10T21:21:42.282Z,89.10
2017-11-10T21:24:43.841Z,88.50
2017-11-10T21:27:45.201Z,89.00
2017-11-10T21:30:46.638Z,89.10
2017-11-10T21:33:48.288Z,89.00
2017-11-10T21:36:53.671Z,89.40
2017-11-10T21:39:55.225Z,88.60
2017-11-10T21:42:56.825Z,88.50
2017-11-10T21:45:59.089Z,88.50
2017-11-10T21:49:01.238Z,89.40
2017-11-10T21:52:02.734Z,88.60
2017-11-10T21:55:04.326Z,88.60
2017-11-10T21:58:05.735Z,88.60
2017-11-10T22:01:07.921Z,89.10
2017-11-10T22:04:09.526Z,89.20
2017-11-10T22:07:10.912Z,88.70
2017-11-10T22:10:12.281Z,88.50
2017-11-10T22:13:13.652Z,88.80
2017-11-10T22:16:15.053Z,89.30
2017-11-10T22:19:17.164Z,88.70
2017-11-10T22:22:18.580Z,88.60
2017-11-10T22:25:20.713Z,88.40
2017-11-10T22:28:22.114Z,88.30
2017-11-10T22:31:23.537Z,89.10
2017-11-10T22:34:25.655Z,88.80
2017-11-10T22:37:27.060Z,88.50
2017-11-10T22:40:29.165Z,89.40
2017-11-10T22:43:30.532Z,89.40
2017-11-10T22:46:32.104Z,89.00
2017-11-10T22:49:33.524Z,88.20
2017-11-10T22:52:35.050Z,88.50
2017-11-10T22:55:37.205Z,88.60
2017-11-10T22:58:39.358Z,87.90
2017-11-10T23:01:40.988Z,88.00
2017-11-10T23:04:42.690Z,87.60
2017-11-10T23:07:44.897Z,89.40
2017-11-10T23:10:46.320Z,90.00
2017-11-10T23:13:48.427Z,90.30
2017-11-10T23:16:49.855Z,90.30
2017-11-10T23:19:51.352Z,90.10
2017-11-10T23:22:52.805Z,90.40
2017-11-10T23:25:54.244Z,90.20
2017-11-10T23:28:55.597Z,90.40
2017-11-10T23:31:56.986Z,90.20
2017-11-10T23:34:58.381Z,90.50
2017-11-10T23:37:59.809Z,90.30
2017-11-10T23:41:01.927Z,90.60
2017-11-10T23:44:03.352Z,90.50
2017-11-10T23:47:04.909Z,90.50
2017-11-10T23:50:06.301Z,90.50
2017-11-10T23:53:07.716Z,90.60
2017-11-10T23:56:09.050Z,90.40
2017-11-10T23:59:10.503Z,90.50
